sensor_id;sensor_type;location;lat;lon;timestamp;P1;durP1;ratioP1;P2;durP2;ratioP2
20635;SDS011;10477;43.198;27.916;2022-09-09T00:01:28;76.00;;;68.60;;
20635;SDS011;10477;43.198;27.916;2022-09-09T00:07:01;80.37;;;72.77;;
20635;SDS011;10477;43.198;27.916;2022-09-09T00:13:04;77.07;;;69.87;;
20635;SDS011;10477;43.198;27.916;2022-09-09T00:21:37;81.27;;;74.37;;
20635;SDS011;10477;43.198;27.916;2022-09-09T00:26:56;76.43;;;69.93;;
20635;SDS011;10477;43.198;27.916;2022-09-09T00:29:32;68.00;;;62.30;;
20635;SDS011;10477;43.198;27.916;2022-09-09T00:32:05;75.43;;;69.53;;
20635;SDS011;10477;43.198;27.916;2022-09-09T00:34:26;74.00;;;67.70;;
20635;SDS011;10477;43.198;27.916;2022-09-09T00:36:55;75.97;;;69.47;;
20635;SDS011;10477;43.198;27.916;2022-09-09T00:39:34;71.90;;;65.80;;
20635;SDS011;10477;43.198;27.916;2022-09-09T00:44:38;76.03;;;69.33;;
20635;SDS011;10477;43.198;27.916;2022-09-09T00:53:02;83.17;;;75.17;;
20635;SDS011;10477;43.198;27.916;2022-09-09T00:55:48;87.13;;;78.83;;
20635;SDS011;10477;43.198;27.916;2022-09-09T00:58:20;89.27;;;80.57;;
20635;SDS011;10477;43.198;27.916;2022-09-09T01:01:04;96.70;;;87.80;;
20635;SDS011;10477;43.198;27.916;2022-09-09T01:03:35;89.67;;;80.97;;
20635;SDS011;10477;43.198;27.916;2022-09-09T01:06:30;92.60;;;83.83;;
20635;SDS011;10477;43.198;27.916;2022-09-09T01:12:01;97.30;;;88.00;;
20635;SDS011;10477;43.198;27.916;2022-09-09T01:22:47;90.87;;;82.47;;
20635;SDS011;10477;43.198;27.916;2022-09-09T01:28:17;93.30;;;84.40;;
20635;SDS011;10477;43.198;27.916;2022-09-09T01:30:50;100.90;;;91.50;;
20635;SDS011;10477;43.198;27.916;2022-09-09T01:33:17;104.10;;;94.40;;
20635;SDS011;10477;43.198;27.916;2022-09-09T01:35:50;118.50;;;107.60;;
20635;SDS011;10477;43.198;27.916;2022-09-09T01:38:22;127.87;;;116.37;;
20635;SDS011;10477;43.198;27.916;2022-09-09T01:40:51;123.57;;;112.33;;
20635;SDS011;10477;43.198;27.916;2022-09-09T01:43:20;115.32;;;104.87;;
20635;SDS011;10477;43.198;27.916;2022-09-09T01:45:51;119.73;;;108.80;;
20635;SDS011;10477;43.198;27.916;2022-09-09T01:48:20;133.03;;;121.13;;
20635;SDS011;10477;43.198;27.916;2022-09-09T01:50:50;149.27;;;136.27;;
20635;SDS011;10477;43.198;27.916;2022-09-09T01:53:18;144.90;;;132.20;;
20635;SDS011;10477;43.198;27.916;2022-09-09T01:58:59;133.80;;;121.80;;
20635;SDS011;10477;43.198;27.916;2022-09-09T02:01:40;130.87;;;119.00;;
20635;SDS011;10477;43.198;27.916;2022-09-09T02:04:14;133.40;;;121.23;;
20635;SDS011;10477;43.198;27.916;2022-09-09T02:06:57;143.10;;;130.50;;
20635;SDS011;10477;43.198;27.916;2022-09-09T02:09:25;141.23;;;128.73;;
20635;SDS011;10477;43.198;27.916;2022-09-09T02:11:57;131.50;;;119.70;;
20635;SDS011;10477;43.198;27.916;2022-09-09T02:14:30;121.83;;;110.53;;
20635;SDS011;10477;43.198;27.916;2022-09-09T02:17:06;120.50;;;109.47;;
20635;SDS011;10477;43.198;27.916;2022-09-09T02:19:38;104.87;;;94.77;;
20635;SDS011;10477;43.198;27.916;2022-09-09T02:22:07;85.13;;;76.73;;
20635;SDS011;10477;43.198;27.916;2022-09-09T02:24:36;86.43;;;77.93;;
20635;SDS011;10477;43.198;27.916;2022-09-09T02:27:06;81.80;;;73.63;;
20635;SDS011;10477;43.198;27.916;2022-09-09T02:29:39;80.43;;;72.20;;
20635;SDS011;10477;43.198;27.916;2022-09-09T02:32:12;81.90;;;73.70;;
20635;SDS011;10477;43.198;27.916;2022-09-09T02:34:50;94.37;;;85.80;;
20635;SDS011;10477;43.198;27.916;2022-09-09T02:37:15;87.35;;;78.67;;
20635;SDS011;10477;43.198;27.916;2022-09-09T02:39:45;85.23;;;77.10;;
20635;SDS011;10477;43.198;27.916;2022-09-09T02:42:14;85.53;;;77.23;;
20635;SDS011;10477;43.198;27.916;2022-09-09T02:44:42;78.17;;;70.40;;
20635;SDS011;10477;43.198;27.916;2022-09-09T02:47:29;74.67;;;66.87;;
20635;SDS011;10477;43.198;27.916;2022-09-09T02:50:00;69.60;;;62.27;;
20635;SDS011;10477;43.198;27.916;2022-09-09T02:55:33;70.47;;;63.27;;
20635;SDS011;10477;43.198;27.916;2022-09-09T02:58:00;66.97;;;59.87;;
20635;SDS011;10477;43.198;27.916;2022-09-09T03:00:32;64.37;;;57.47;;
20635;SDS011;10477;43.198;27.916;2022-09-09T03:03:06;68.47;;;61.27;;
20635;SDS011;10477;43.198;27.916;2022-09-09T03:05:36;67.67;;;60.53;;
20635;SDS011;10477;43.198;27.916;2022-09-09T03:08:04;69.23;;;62.20;;
20635;SDS011;10477;43.198;27.916;2022-09-09T03:10:32;67.37;;;60.37;;
20635;SDS011;10477;43.198;27.916;2022-09-09T03:13:01;68.53;;;61.47;;
20635;SDS011;10477;43.198;27.916;2022-09-09T03:15:32;67.97;;;60.87;;
20635;SDS011;10477;43.198;27.916;2022-09-09T03:18:00;66.83;;;59.83;;
20635;SDS011;10477;43.198;27.916;2022-09-09T03:20:29;71.80;;;64.50;;
20635;SDS011;10477;43.198;27.916;2022-09-09T03:22:58;64.13;;;57.23;;
20635;SDS011;10477;43.198;27.916;2022-09-09T03:25:28;65.17;;;58.13;;
20635;SDS011;10477;43.198;27.916;2022-09-09T03:27:55;51.80;;;46.30;;
20635;SDS011;10477;43.198;27.916;2022-09-09T03:30:24;63.23;;;56.53;;
20635;SDS011;10477;43.198;27.916;2022-09-09T03:32:53;60.45;;;53.95;;
20635;SDS011;10477;43.198;27.916;2022-09-09T03:35:21;63.00;;;56.40;;
20635;SDS011;10477;43.198;27.916;2022-09-09T03:37:49;69.73;;;62.77;;
20635;SDS011;10477;43.198;27.916;2022-09-09T03:40:17;65.53;;;58.83;;
20635;SDS011;10477;43.198;27.916;2022-09-09T03:42:45;65.22;;;58.42;;
20635;SDS011;10477;43.198;27.916;2022-09-09T03:45:14;65.83;;;58.93;;
20635;SDS011;10477;43.198;27.916;2022-09-09T03:47:42;65.95;;;59.10;;
20635;SDS011;10477;43.198;27.916;2022-09-09T03:50:10;77.03;;;69.50;;
20635;SDS011;10477;43.198;27.916;2022-09-09T03:52:39;58.65;;;52.50;;
20635;SDS011;10477;43.198;27.916;2022-09-09T03:55:08;65.67;;;59.17;;
20635;SDS011;10477;43.198;27.916;2022-09-09T03:57:36;66.05;;;59.83;;
20635;SDS011;10477;43.198;27.916;2022-09-09T04:00:05;68.87;;;62.58;;
20635;SDS011;10477;43.198;27.916;2022-09-09T04:02:34;67.43;;;61.23;;
20635;SDS011;10477;43.198;27.916;2022-09-09T04:07:32;69.53;;;63.23;;
20635;SDS011;10477;43.198;27.916;2022-09-09T04:09:59;67.40;;;61.30;;
20635;SDS011;10477;43.198;27.916;2022-09-09T04:12:28;64.67;;;58.63;;
20635;SDS011;10477;43.198;27.916;2022-09-09T04:14:56;54.00;;;49.15;;
20635;SDS011;10477;43.198;27.916;2022-09-09T04:17:24;65.00;;;59.20;;
20635;SDS011;10477;43.198;27.916;2022-09-09T04:19:51;72.13;;;66.13;;
20635;SDS011;10477;43.198;27.916;2022-09-09T04:22:19;65.57;;;59.97;;
20635;SDS011;10477;43.198;27.916;2022-09-09T04:24:48;63.70;;;58.30;;
20635;SDS011;10477;43.198;27.916;2022-09-09T04:27:15;59.87;;;54.57;;
20635;SDS011;10477;43.198;27.916;2022-09-09T04:29:43;63.33;;;58.03;;
20635;SDS011;10477;43.198;27.916;2022-09-09T04:32:11;63.03;;;57.73;;
20635;SDS011;10477;43.198;27.916;2022-09-09T04:34:39;69.13;;;63.53;;
20635;SDS011;10477;43.198;27.916;2022-09-09T04:37:06;58.67;;;53.67;;
20635;SDS011;10477;43.198;27.916;2022-09-09T04:39:35;59.90;;;54.80;;
20635;SDS011;10477;43.198;27.916;2022-09-09T04:42:03;64.12;;;58.83;;
20635;SDS011;10477;43.198;27.916;2022-09-09T04:44:31;59.20;;;54.20;;
20635;SDS011;10477;43.198;27.916;2022-09-09T04:46:59;56.40;;;51.60;;
20635;SDS011;10477;43.198;27.916;2022-09-09T04:49:26;61.30;;;56.23;;
20635;SDS011;10477;43.198;27.916;2022-09-09T04:51:55;60.00;;;55.00;;
20635;SDS011;10477;43.198;27.916;2022-09-09T04:54:23;59.60;;;54.70;;
20635;SDS011;10477;43.198;27.916;2022-09-09T04:56:50;62.10;;;56.97;;
20635;SDS011;10477;43.198;27.916;2022-09-09T04:59:18;65.03;;;59.93;;
20635;SDS011;10477;43.198;27.916;2022-09-09T05:01:46;57.40;;;52.57;;
20635;SDS011;10477;43.198;27.916;2022-09-09T05:04:14;70.40;;;64.80;;
20635;SDS011;10477;43.198;27.916;2022-09-09T05:09:10;51.05;;;46.85;;
20635;SDS011;10477;43.198;27.916;2022-09-09T05:11:37;55.50;;;50.25;;
20635;SDS011;10477;43.198;27.916;2022-09-09T05:14:05;58.35;;;53.70;;
20635;SDS011;10477;43.198;27.916;2022-09-09T05:16:34;49.70;;;45.70;;
20635;SDS011;10477;43.198;27.916;2022-09-09T05:19:02;49.03;;;45.03;;
20635;SDS011;10477;43.198;27.916;2022-09-09T05:21:30;56.28;;;51.75;;
20635;SDS011;10477;43.198;27.916;2022-09-09T05:23:57;47.97;;;43.93;;
20635;SDS011;10477;43.198;27.916;2022-09-09T05:26:26;43.17;;;39.48;;
20635;SDS011;10477;43.198;27.916;2022-09-09T05:28:55;44.15;;;40.55;;
20635;SDS011;10477;43.198;27.916;2022-09-09T05:31:24;40.00;;;36.70;;
20635;SDS011;10477;43.198;27.916;2022-09-09T05:33:53;42.67;;;39.18;;
20635;SDS011;10477;43.198;27.916;2022-09-09T05:36:21;42.48;;;39.08;;
20635;SDS011;10477;43.198;27.916;2022-09-09T05:38:50;39.98;;;36.77;;
20635;SDS011;10477;43.198;27.916;2022-09-09T05:41:19;38.90;;;35.70;;
20635;SDS011;10477;43.198;27.916;2022-09-09T05:43:48;36.80;;;33.80;;
20635;SDS011;10477;43.198;27.916;2022-09-09T05:46:17;40.33;;;37.13;;
20635;SDS011;10477;43.198;27.916;2022-09-09T05:48:50;47.00;;;43.28;;
20635;SDS011;10477;43.198;27.916;2022-09-09T05:51:25;46.08;;;42.40;;
20635;SDS011;10477;43.198;27.916;2022-09-09T05:53:50;40.40;;;37.10;;
20635;SDS011;10477;43.198;27.916;2022-09-09T05:56:25;51.93;;;28.53;;
20635;SDS011;10477;43.198;27.916;2022-09-09T05:58:53;38.88;;;35.68;;
20635;SDS011;10477;43.198;27.916;2022-09-09T06:01:26;40.92;;;37.83;;
20635;SDS011;10477;43.198;27.916;2022-09-09T06:03:57;40.23;;;37.13;;
20635;SDS011;10477;43.198;27.916;2022-09-09T06:06:26;39.92;;;36.83;;
20635;SDS011;10477;43.198;27.916;2022-09-09T06:08:56;43.05;;;39.65;;
20635;SDS011;10477;43.198;27.916;2022-09-09T06:11:25;37.75;;;34.65;;
20635;SDS011;10477;43.198;27.916;2022-09-09T06:13:57;40.48;;;37.13;;
20635;SDS011;10477;43.198;27.916;2022-09-09T06:16:26;41.08;;;37.80;;
20635;SDS011;10477;43.198;27.916;2022-09-09T06:18:56;39.13;;;35.63;;
20635;SDS011;10477;43.198;27.916;2022-09-09T06:21:24;38.50;;;35.20;;
20635;SDS011;10477;43.198;27.916;2022-09-09T06:23:58;35.92;;;32.93;;
20635;SDS011;10477;43.198;27.916;2022-09-09T06:26:27;45.47;;;41.90;;
20635;SDS011;10477;43.198;27.916;2022-09-09T06:28:57;35.48;;;32.38;;
20635;SDS011;10477;43.198;27.916;2022-09-09T06:31:26;37.78;;;34.65;;
20635;SDS011;10477;43.198;27.916;2022-09-09T06:33:59;34.48;;;31.57;;
20635;SDS011;10477;43.198;27.916;2022-09-09T06:36:30;33.25;;;30.35;;
20635;SDS011;10477;43.198;27.916;2022-09-09T06:38:59;33.25;;;30.35;;
20635;SDS011;10477;43.198;27.916;2022-09-09T06:41:28;32.83;;;29.82;;
20635;SDS011;10477;43.198;27.916;2022-09-09T06:43:58;36.48;;;33.48;;
20635;SDS011;10477;43.198;27.916;2022-09-09T06:46:27;36.70;;;33.80;;
20635;SDS011;10477;43.198;27.916;2022-09-09T06:48:58;43.63;;;40.17;;
20635;SDS011;10477;43.198;27.916;2022-09-09T06:51:28;46.70;;;43.00;;
20635;SDS011;10477;43.198;27.916;2022-09-09T06:53:58;34.15;;;31.25;;
20635;SDS011;10477;43.198;27.916;2022-09-09T06:56:29;37.00;;;34.00;;
20635;SDS011;10477;43.198;27.916;2022-09-09T06:59:03;37.70;;;34.70;;
20635;SDS011;10477;43.198;27.916;2022-09-09T07:01:32;37.33;;;34.33;;
20635;SDS011;10477;43.198;27.916;2022-09-09T07:04:02;39.55;;;36.35;;
20635;SDS011;10477;43.198;27.916;2022-09-09T07:06:39;36.28;;;33.38;;
20635;SDS011;10477;43.198;27.916;2022-09-09T07:09:04;45.75;;;42.35;;
20635;SDS011;10477;43.198;27.916;2022-09-09T07:11:37;48.02;;;44.35;;
20635;SDS011;10477;43.198;27.916;2022-09-09T07:14:11;44.95;;;41.53;;
20635;SDS011;10477;43.198;27.916;2022-09-09T07:16:41;39.63;;;36.63;;
20635;SDS011;10477;43.198;27.916;2022-09-09T07:19:11;37.48;;;34.58;;
20635;SDS011;10477;43.198;27.916;2022-09-09T07:21:40;38.20;;;35.20;;
20635;SDS011;10477;43.198;27.916;2022-09-09T07:24:10;41.00;;;37.88;;
20635;SDS011;10477;43.198;27.916;2022-09-09T07:26:38;38.38;;;35.38;;
20635;SDS011;10477;43.198;27.916;2022-09-09T07:29:08;43.48;;;40.12;;
20635;SDS011;10477;43.198;27.916;2022-09-09T07:31:38;40.08;;;36.88;;
20635;SDS011;10477;43.198;27.916;2022-09-09T07:34:06;37.48;;;34.27;;
20635;SDS011;10477;43.198;27.916;2022-09-09T07:36:39;36.50;;;33.63;;
20635;SDS011;10477;43.198;27.916;2022-09-09T07:39:09;48.52;;;44.80;;
20635;SDS011;10477;43.198;27.916;2022-09-09T07:41:48;38.10;;;35.03;;
20635;SDS011;10477;43.198;27.916;2022-09-09T07:44:17;40.65;;;37.45;;
20635;SDS011;10477;43.198;27.916;2022-09-09T07:46:50;42.53;;;39.33;;
20635;SDS011;10477;43.198;27.916;2022-09-09T07:49:18;45.65;;;41.10;;
20635;SDS011;10477;43.198;27.916;2022-09-09T07:51:50;44.08;;;40.78;;
20635;SDS011;10477;43.198;27.916;2022-09-09T07:54:15;51.85;;;46.37;;
20635;SDS011;10477;43.198;27.916;2022-09-09T07:56:54;43.70;;;40.45;;
20635;SDS011;10477;43.198;27.916;2022-09-09T07:59:21;39.35;;;36.35;;
20635;SDS011;10477;43.198;27.916;2022-09-09T08:01:50;42.40;;;39.30;;
20635;SDS011;10477;43.198;27.916;2022-09-09T08:04:20;42.10;;;38.70;;
20635;SDS011;10477;43.198;27.916;2022-09-09T08:06:55;41.77;;;38.65;;
20635;SDS011;10477;43.198;27.916;2022-09-09T08:09:25;49.00;;;45.43;;
20635;SDS011;10477;43.198;27.916;2022-09-09T08:12:03;34.13;;;31.73;;
20635;SDS011;10477;43.198;27.916;2022-09-09T08:14:27;35.65;;;33.13;;
20635;SDS011;10477;43.198;27.916;2022-09-09T08:16:55;31.77;;;29.37;;
20635;SDS011;10477;43.198;27.916;2022-09-09T08:19:24;33.75;;;31.45;;
20635;SDS011;10477;43.198;27.916;2022-09-09T08:21:54;37.45;;;34.85;;
20635;SDS011;10477;43.198;27.916;2022-09-09T08:24:21;38.55;;;35.75;;
20635;SDS011;10477;43.198;27.916;2022-09-09T08:26:49;39.23;;;36.35;;
20635;SDS011;10477;43.198;27.916;2022-09-09T08:29:18;40.08;;;37.08;;
20635;SDS011;10477;43.198;27.916;2022-09-09T08:31:47;43.30;;;40.20;;
20635;SDS011;10477;43.198;27.916;2022-09-09T08:34:23;46.18;;;42.80;;
20635;SDS011;10477;43.198;27.916;2022-09-09T08:36:53;42.10;;;39.03;;
20635;SDS011;10477;43.198;27.916;2022-09-09T08:39:22;42.70;;;39.45;;
20635;SDS011;10477;43.198;27.916;2022-09-09T08:47:50;48.02;;;44.42;;
20635;SDS011;10477;43.198;27.916;2022-09-09T08:52:59;40.10;;;37.10;;
20635;SDS011;10477;43.198;27.916;2022-09-09T08:55:35;45.58;;;42.25;;
20635;SDS011;10477;43.198;27.916;2022-09-09T08:58:45;40.73;;;37.53;;
20635;SDS011;10477;43.198;27.916;2022-09-09T09:00:54;45.95;;;42.55;;
20635;SDS011;10477;43.198;27.916;2022-09-09T09:06:40;42.35;;;39.27;;
20635;SDS011;10477;43.198;27.916;2022-09-09T09:08:58;40.58;;;37.48;;
20635;SDS011;10477;43.198;27.916;2022-09-09T09:11:56;41.50;;;38.30;;
20635;SDS011;10477;43.198;27.916;2022-09-09T09:14:25;44.98;;;41.58;;
20635;SDS011;10477;43.198;27.916;2022-09-09T09:17:02;45.00;;;41.70;;
20635;SDS011;10477;43.198;27.916;2022-09-09T09:19:29;38.92;;;35.98;;
20635;SDS011;10477;43.198;27.916;2022-09-09T09:22:17;40.38;;;37.38;;
20635;SDS011;10477;43.198;27.916;2022-09-09T09:25:11;41.92;;;38.83;;
20635;SDS011;10477;43.198;27.916;2022-09-09T09:27:59;40.30;;;37.20;;
20635;SDS011;10477;43.198;27.916;2022-09-09T09:30:31;44.85;;;41.35;;
20635;SDS011;10477;43.198;27.916;2022-09-09T09:33:08;42.70;;;39.40;;
20635;SDS011;10477;43.198;27.916;2022-09-09T09:35:34;43.40;;;40.10;;
20635;SDS011;10477;43.198;27.916;2022-09-09T09:38:05;42.00;;;38.90;;
20635;SDS011;10477;43.198;27.916;2022-09-09T09:40:32;48.65;;;45.05;;
20635;SDS011;10477;43.198;27.916;2022-09-09T09:43:00;43.02;;;39.73;;
20635;SDS011;10477;43.198;27.916;2022-09-09T09:45:41;43.50;;;40.30;;
20635;SDS011;10477;43.198;27.916;2022-09-09T09:48:13;41.08;;;37.98;;
20635;SDS011;10477;43.198;27.916;2022-09-09T09:50:55;41.08;;;38.08;;
20635;SDS011;10477;43.198;27.916;2022-09-09T09:53:28;43.13;;;39.90;;
20635;SDS011;10477;43.198;27.916;2022-09-09T09:55:59;44.05;;;40.85;;
20635;SDS011;10477;43.198;27.916;2022-09-09T09:58:37;49.15;;;45.55;;
20635;SDS011;10477;43.198;27.916;2022-09-09T10:00:59;37.40;;;34.50;;
20635;SDS011;10477;43.198;27.916;2022-09-09T10:03:31;44.80;;;41.48;;
20635;SDS011;10477;43.198;27.916;2022-09-09T10:06:02;39.23;;;36.40;;
20635;SDS011;10477;43.198;27.916;2022-09-09T10:08:32;50.98;;;47.08;;
20635;SDS011;10477;43.198;27.916;2022-09-09T10:19:50;40.83;;;37.83;;
20635;SDS011;10477;43.198;27.916;2022-09-09T10:33:49;41.85;;;38.85;;
20635;SDS011;10477;43.198;27.916;2022-09-09T10:36:22;39.45;;;36.55;;
20635;SDS011;10477;43.198;27.916;2022-09-09T10:39:00;41.42;;;38.23;;
20635;SDS011;10477;43.198;27.916;2022-09-09T10:44:28;42.93;;;39.73;;
20635;SDS011;10477;43.198;27.916;2022-09-09T10:52:50;43.58;;;40.38;;
20635;SDS011;10477;43.198;27.916;2022-09-09T10:55:20;43.38;;;40.17;;
20635;SDS011;10477;43.198;27.916;2022-09-09T10:57:54;45.92;;;42.65;;
20635;SDS011;10477;43.198;27.916;2022-09-09T11:00:24;39.83;;;36.93;;
20635;SDS011;10477;43.198;27.916;2022-09-09T11:03:23;42.73;;;39.63;;
20635;SDS011;10477;43.198;27.916;2022-09-09T11:05:46;46.42;;;42.53;;
20635;SDS011;10477;43.198;27.916;2022-09-09T11:08:36;39.65;;;36.75;;
20635;SDS011;10477;43.198;27.916;2022-09-09T11:14:26;41.73;;;38.53;;
20635;SDS011;10477;43.198;27.916;2022-09-09T11:16:56;45.25;;;42.05;;
20635;SDS011;10477;43.198;27.916;2022-09-09T11:19:26;43.00;;;39.90;;
20635;SDS011;10477;43.198;27.916;2022-09-09T11:21:55;39.60;;;36.70;;
20635;SDS011;10477;43.198;27.916;2022-09-09T11:24:27;45.05;;;41.83;;
20635;SDS011;10477;43.198;27.916;2022-09-09T11:27:10;38.23;;;35.43;;
20635;SDS011;10477;43.198;27.916;2022-09-09T11:29:50;39.80;;;36.90;;
20635;SDS011;10477;43.198;27.916;2022-09-09T11:40:40;39.78;;;36.88;;
20635;SDS011;10477;43.198;27.916;2022-09-09T11:43:16;43.30;;;40.12;;
20635;SDS011;10477;43.198;27.916;2022-09-09T11:45:49;48.68;;;45.08;;
20635;SDS011;10477;43.198;27.916;2022-09-09T11:48:26;45.35;;;41.98;;
20635;SDS011;10477;43.198;27.916;2022-09-09T11:50:59;38.73;;;35.83;;
20635;SDS011;10477;43.198;27.916;2022-09-09T11:53:29;36.95;;;34.05;;
20635;SDS011;10477;43.198;27.916;2022-09-09T11:56:00;39.83;;;36.77;;
20635;SDS011;10477;43.198;27.916;2022-09-09T11:58:33;44.00;;;40.78;;
20635;SDS011;10477;43.198;27.916;2022-09-09T12:01:13;40.78;;;37.67;;
20635;SDS011;10477;43.198;27.916;2022-09-09T12:03:51;39.05;;;36.25;;
20635;SDS011;10477;43.198;27.916;2022-09-09T12:06:28;41.42;;;38.42;;
20635;SDS011;10477;43.198;27.916;2022-09-09T12:09:08;43.53;;;40.43;;
20635;SDS011;10477;43.198;27.916;2022-09-09T12:11:37;47.83;;;44.53;;
20635;SDS011;10477;43.198;27.916;2022-09-09T12:14:18;46.45;;;43.15;;
20635;SDS011;10477;43.198;27.916;2022-09-09T12:16:36;45.17;;;41.98;;
20635;SDS011;10477;43.198;27.916;2022-09-09T12:19:22;39.13;;;36.30;;
20635;SDS011;10477;43.198;27.916;2022-09-09T12:21:50;39.92;;;37.13;;
20635;SDS011;10477;43.198;27.916;2022-09-09T12:24:37;42.25;;;39.25;;
20635;SDS011;10477;43.198;27.916;2022-09-09T12:27:20;41.58;;;38.67;;
20635;SDS011;10477;43.198;27.916;2022-09-09T12:29:51;40.43;;;37.53;;
20635;SDS011;10477;43.198;27.916;2022-09-09T12:32:22;42.70;;;39.50;;
20635;SDS011;10477;43.198;27.916;2022-09-09T12:34:55;41.23;;;38.20;;
20635;SDS011;10477;43.198;27.916;2022-09-09T12:40:14;41.42;;;38.42;;
20635;SDS011;10477;43.198;27.916;2022-09-09T12:42:51;39.85;;;37.08;;
20635;SDS011;10477;43.198;27.916;2022-09-09T12:45:27;37.15;;;34.53;;
20635;SDS011;10477;43.198;27.916;2022-09-09T12:47:53;35.73;;;33.13;;
20635;SDS011;10477;43.198;27.916;2022-09-09T12:50:32;36.53;;;33.83;;
20635;SDS011;10477;43.198;27.916;2022-09-09T12:53:09;35.52;;;32.83;;
20635;SDS011;10477;43.198;27.916;2022-09-09T12:55:48;41.85;;;38.30;;
20635;SDS011;10477;43.198;27.916;2022-09-09T12:58:11;40.85;;;37.85;;
20635;SDS011;10477;43.198;27.916;2022-09-09T13:00:48;44.75;;;41.45;;
20635;SDS011;10477;43.198;27.916;2022-09-09T13:03:22;40.40;;;37.40;;
20635;SDS011;10477;43.198;27.916;2022-09-09T13:05:52;40.05;;;37.00;;
20635;SDS011;10477;43.198;27.916;2022-09-09T13:08:23;42.48;;;39.38;;
20635;SDS011;10477;43.198;27.916;2022-09-09T13:11:00;47.17;;;43.63;;
20635;SDS011;10477;43.198;27.916;2022-09-09T13:13:35;38.50;;;35.70;;
20635;SDS011;10477;43.198;27.916;2022-09-09T13:16:05;41.25;;;38.15;;
20635;SDS011;10477;43.198;27.916;2022-09-09T13:18:37;42.73;;;39.55;;
20635;SDS011;10477;43.198;27.916;2022-09-09T13:21:07;36.50;;;33.60;;
20635;SDS011;10477;43.198;27.916;2022-09-09T13:23:36;33.78;;;30.97;;
20635;SDS011;10477;43.198;27.916;2022-09-09T13:26:06;33.73;;;31.02;;
20635;SDS011;10477;43.198;27.916;2022-09-09T13:28:47;34.30;;;31.60;;
20635;SDS011;10477;43.198;27.916;2022-09-09T13:31:20;35.88;;;33.18;;
20635;SDS011;10477;43.198;27.916;2022-09-09T13:33:58;38.48;;;35.58;;
20635;SDS011;10477;43.198;27.916;2022-09-09T13:36:32;41.95;;;38.83;;
20635;SDS011;10477;43.198;27.916;2022-09-09T13:39:02;42.30;;;39.30;;
20635;SDS011;10477;43.198;27.916;2022-09-09T13:41:35;37.67;;;34.98;;
20635;SDS011;10477;43.198;27.916;2022-09-09T13:44:04;38.28;;;35.48;;
20635;SDS011;10477;43.198;27.916;2022-09-09T13:46:34;38.85;;;36.05;;
20635;SDS011;10477;43.198;27.916;2022-09-09T13:51:40;44.37;;;41.17;;
20635;SDS011;10477;43.198;27.916;2022-09-09T13:54:12;34.70;;;31.90;;
20635;SDS011;10477;43.198;27.916;2022-09-09T13:56:42;37.03;;;34.38;;
20635;SDS011;10477;43.198;27.916;2022-09-09T13:59:18;42.45;;;39.35;;
20635;SDS011;10477;43.198;27.916;2022-09-09T14:01:45;40.48;;;37.45;;
20635;SDS011;10477;43.198;27.916;2022-09-09T14:04:15;42.70;;;39.63;;
20635;SDS011;10477;43.198;27.916;2022-09-09T14:06:43;40.83;;;37.75;;
20635;SDS011;10477;43.198;27.916;2022-09-09T14:09:12;40.23;;;37.23;;
20635;SDS011;10477;43.198;27.916;2022-09-09T14:11:42;41.15;;;37.58;;
20635;SDS011;10477;43.198;27.916;2022-09-09T14:14:12;42.88;;;39.27;;
20635;SDS011;10477;43.198;27.916;2022-09-09T14:16:40;39.90;;;36.90;;
20635;SDS011;10477;43.198;27.916;2022-09-09T14:19:08;38.45;;;35.55;;
20635;SDS011;10477;43.198;27.916;2022-09-09T14:21:36;43.42;;;40.23;;
20635;SDS011;10477;43.198;27.916;2022-09-09T14:24:04;39.23;;;36.33;;
20635;SDS011;10477;43.198;27.916;2022-09-09T14:26:32;41.30;;;38.15;;
20635;SDS011;10477;43.198;27.916;2022-09-09T14:29:00;45.63;;;42.33;;
20635;SDS011;10477;43.198;27.916;2022-09-09T14:31:28;36.98;;;33.75;;
20635;SDS011;10477;43.198;27.916;2022-09-09T14:33:55;46.53;;;43.15;;
20635;SDS011;10477;43.198;27.916;2022-09-09T14:36:24;32.60;;;30.15;;
20635;SDS011;10477;43.198;27.916;2022-09-09T14:38:52;47.50;;;44.00;;
20635;SDS011;10477;43.198;27.916;2022-09-09T14:41:19;47.15;;;43.73;;
20635;SDS011;10477;43.198;27.916;2022-09-09T14:43:48;46.65;;;43.02;;
20635;SDS011;10477;43.198;27.916;2022-09-09T14:46:18;41.80;;;38.70;;
20635;SDS011;10477;43.198;27.916;2022-09-09T14:48:46;54.95;;;50.92;;
20635;SDS011;10477;43.198;27.916;2022-09-09T14:51:15;44.30;;;40.90;;
20635;SDS011;10477;43.198;27.916;2022-09-09T14:53:45;49.38;;;45.83;;
20635;SDS011;10477;43.198;27.916;2022-09-09T14:56:14;42.53;;;39.23;;
20635;SDS011;10477;43.198;27.916;2022-09-09T14:58:44;42.45;;;39.13;;
20635;SDS011;10477;43.198;27.916;2022-09-09T15:01:18;49.08;;;45.38;;
20635;SDS011;10477;43.198;27.916;2022-09-09T15:03:44;51.15;;;47.45;;
20635;SDS011;10477;43.198;27.916;2022-09-09T15:06:19;48.45;;;44.83;;
20635;SDS011;10477;43.198;27.916;2022-09-09T15:08:49;46.30;;;42.65;;
20635;SDS011;10477;43.198;27.916;2022-09-09T15:11:19;48.17;;;44.58;;
20635;SDS011;10477;43.198;27.916;2022-09-09T15:13:50;49.67;;;45.98;;
20635;SDS011;10477;43.198;27.916;2022-09-09T15:16:23;44.93;;;41.35;;
20635;SDS011;10477;43.198;27.916;2022-09-09T15:18:52;49.05;;;45.35;;
20635;SDS011;10477;43.198;27.916;2022-09-09T15:21:23;47.35;;;43.70;;
20635;SDS011;10477;43.198;27.916;2022-09-09T15:23:52;46.55;;;43.05;;
20635;SDS011;10477;43.198;27.916;2022-09-09T15:26:21;48.98;;;45.20;;
20635;SDS011;10477;43.198;27.916;2022-09-09T15:28:50;45.63;;;41.83;;
20635;SDS011;10477;43.198;27.916;2022-09-09T15:31:19;52.88;;;48.83;;
20635;SDS011;10477;43.198;27.916;2022-09-09T15:33:53;49.80;;;45.90;;
20635;SDS011;10477;43.198;27.916;2022-09-09T15:36:35;46.70;;;43.10;;
20635;SDS011;10477;43.198;27.916;2022-09-09T15:39:00;91.53;;;85.47;;
20635;SDS011;10477;43.198;27.916;2022-09-09T15:41:29;49.00;;;45.40;;
20635;SDS011;10477;43.198;27.916;2022-09-09T15:44:00;48.70;;;45.00;;
20635;SDS011;10477;43.198;27.916;2022-09-09T15:49:09;47.15;;;43.55;;
20635;SDS011;10477;43.198;27.916;2022-09-09T15:51:39;47.80;;;44.30;;
20635;SDS011;10477;43.198;27.916;2022-09-09T15:54:14;48.73;;;44.85;;
20635;SDS011;10477;43.198;27.916;2022-09-09T15:56:40;54.95;;;50.67;;
20635;SDS011;10477;43.198;27.916;2022-09-09T15:59:08;51.35;;;47.35;;
20635;SDS011;10477;43.198;27.916;2022-09-09T16:01:38;49.27;;;42.67;;
20635;SDS011;10477;43.198;27.916;2022-09-09T16:04:07;46.42;;;42.75;;
20635;SDS011;10477;43.198;27.916;2022-09-09T16:06:35;47.70;;;44.00;;
20635;SDS011;10477;43.198;27.916;2022-09-09T16:09:05;51.80;;;47.70;;
20635;SDS011;10477;43.198;27.916;2022-09-09T16:11:36;58.20;;;52.70;;
20635;SDS011;10477;43.198;27.916;2022-09-09T16:14:04;53.13;;;48.48;;
20635;SDS011;10477;43.198;27.916;2022-09-09T16:16:33;56.70;;;51.95;;
20635;SDS011;10477;43.198;27.916;2022-09-09T16:19:05;51.48;;;47.23;;
20635;SDS011;10477;43.198;27.916;2022-09-09T16:21:41;49.90;;;45.80;;